DAL1355 KMIA-KIAH
Flight info
| Callsign | DAL1355 |
|---|---|
| Flight time | N/A |
| Altitude | 34000 |
| Route | GLADZ4 BAGGS REMIS Y280 ROZZI/N0463F360 Y280 LEV SOULL1 |
| Aircraft | A321/M-SDE3FGHIRWY/LB1 |
Departure
| Time | 2026-05-04 18:45 |
|---|---|
| Airport | Miami International Airport (KMIA) |
Arrival
| Time | N/A |
|---|---|
| Airport | George Bush Intercontinental Airport (KIAH) |
| Time | Latitude | Longitude | Altitude | Speed | Heading |
|---|---|---|---|---|---|
| 2026-05-04 18:12 | 25.79728 | -80.28404 | 19 ft | 0 kts | 336° |
| 2026-05-04 18:31 | 25.79727 | -80.28404 | 19 ft | 1 kts | 336° |
| 2026-05-04 18:31 | 25.79705 | -80.28394 | 20 ft | 4 kts | 336° |
| 2026-05-04 18:32 | 25.79683 | -80.28379 | 21 ft | 4 kts | 308° |
| 2026-05-04 18:32 | 25.79673 | -80.28355 | 20 ft | 3 kts | 270° |
| 2026-05-04 18:32 | 25.79673 | -80.28350 | 20 ft | 0 kts | 268° |
| 2026-05-04 18:36 | 25.79671 | -80.28379 | 19 ft | 7 kts | 267° |
| 2026-05-04 18:36 | 25.79668 | -80.28450 | 19 ft | 10 kts | 265° |
| 2026-05-04 18:36 | 25.79662 | -80.28507 | 19 ft | 5 kts | 262° |
| 2026-05-04 18:36 | 25.79657 | -80.28540 | 19 ft | 4 kts | 259° |
| 2026-05-04 18:37 | 25.79652 | -80.28572 | 19 ft | 6 kts | 264° |
| 2026-05-04 18:37 | 25.79648 | -80.28643 | 20 ft | 12 kts | 270° |
| 2026-05-04 18:37 | 25.79640 | -80.28738 | 20 ft | 11 kts | 268° |
| 2026-05-04 18:37 | 25.79663 | -80.28789 | 23 ft | 5 kts | 315° |
| 2026-05-04 18:38 | 25.79682 | -80.28803 | 21 ft | 3 kts | 331° |
| 2026-05-04 18:38 | 25.79713 | -80.28811 | 21 ft | 7 kts | 349° |
| 2026-05-04 18:38 | 25.79777 | -80.28816 | 21 ft | 11 kts | 357° |
| 2026-05-04 18:38 | 25.79860 | -80.28821 | 22 ft | 13 kts | 356° |
| 2026-05-04 18:39 | 25.79952 | -80.28827 | 23 ft | 14 kts | 356° |
| 2026-05-04 18:39 | 25.80007 | -80.28882 | 22 ft | 10 kts | 283° |
| 2026-05-04 18:39 | 25.80008 | -80.28950 | 21 ft | 9 kts | 265° |
| 2026-05-04 18:39 | 25.80003 | -80.29015 | 21 ft | 9 kts | 269° |
| 2026-05-04 18:40 | 25.80001 | -80.29096 | 22 ft | 12 kts | 269° |
| 2026-05-04 18:40 | 25.79999 | -80.29202 | 22 ft | 15 kts | 269° |
| 2026-05-04 18:40 | 25.79992 | -80.29341 | 21 ft | 21 kts | 265° |
| 2026-05-04 18:40 | 25.79982 | -80.29528 | 15 ft | 27 kts | 269° |
| 2026-05-04 18:41 | 25.79977 | -80.29736 | 15 ft | 27 kts | 268° |
| 2026-05-04 18:41 | 25.79969 | -80.29937 | 13 ft | 16 kts | 266° |
| 2026-05-04 18:41 | 25.79968 | -80.29945 | 12 ft | 0 kts | 266° |
| 2026-05-04 18:43 | 25.79967 | -80.29965 | 12 ft | 5 kts | 266° |
| 2026-05-04 18:43 | 25.79965 | -80.30021 | 13 ft | 9 kts | 273° |
| 2026-05-04 18:43 | 25.79987 | -80.30091 | 15 ft | 11 kts | 302° |
| 2026-05-04 18:44 | 25.80058 | -80.30111 | 16 ft | 13 kts | 30° |
| 2026-05-04 18:44 | 25.80072 | -80.30082 | 15 ft | 14 kts | 73° |
| 2026-05-04 18:44 | 25.80096 | -80.29615 | 15 ft | 80 kts | 87° |
| 2026-05-04 18:44 | 25.80131 | -80.28804 | 22 ft | 128 kts | 87° |
| 2026-05-04 18:45 | 25.80197 | -80.27670 | 84 ft | 160 kts | 84° |
| 2026-05-04 18:45 | 25.80297 | -80.26498 | 828 ft | 149 kts | 80° |
| 2026-05-04 18:45 | 25.80415 | -80.25250 | 984 ft | 176 kts | 80° |
| 2026-05-04 18:45 | 25.80493 | -80.23850 | 1321 ft | 187 kts | 85° |
| 2026-05-04 18:46 | 25.80529 | -80.22366 | 1683 ft | 197 kts | 83° |
| 2026-05-04 18:46 | 25.80563 | -80.20800 | 2042 ft | 208 kts | 85° |
| 2026-05-04 18:46 | 25.80597 | -80.19157 | 2393 ft | 217 kts | 85° |
| 2026-05-04 18:46 | 25.80745 | -80.17488 | 2786 ft | 217 kts | 68° |
| 2026-05-04 18:47 | 25.81702 | -80.16166 | 2971 ft | 235 kts | 28° |
| 2026-05-04 18:47 | 25.83331 | -80.15657 | 3491 ft | 250 kts | 7° |
| 2026-05-04 18:47 | 25.85091 | -80.15545 | 4288 ft | 257 kts | 359° |
| 2026-05-04 18:47 | 25.86890 | -80.15555 | 5096 ft | 262 kts | 358° |
| 2026-05-04 18:48 | 25.88731 | -80.15589 | 5838 ft | 267 kts | 354° |
| 2026-05-04 18:48 | 25.90552 | -80.16034 | 6518 ft | 271 kts | 337° |
| 2026-05-04 18:48 | 25.92343 | -80.16744 | 7256 ft | 276 kts | 338° |
| 2026-05-04 18:48 | 25.94151 | -80.17409 | 7989 ft | 279 kts | 339° |
| 2026-05-04 18:49 | 25.95995 | -80.18113 | 8668 ft | 281 kts | 331° |
| 2026-05-04 18:49 | 25.97594 | -80.19310 | 9368 ft | 277 kts | 312° |
| 2026-05-04 18:49 | 25.98732 | -80.21009 | 10065 ft | 273 kts | 293° |
| 2026-05-04 18:49 | 25.99321 | -80.23020 | 10538 ft | 281 kts | 277° |
| 2026-05-04 18:50 | 25.99594 | -80.25250 | 10665 ft | 303 kts | 276° |
| 2026-05-04 18:50 | 25.99799 | -80.27657 | 10784 ft | 323 kts | 269° |
| 2026-05-04 18:50 | 25.99784 | -80.29349 | 10869 ft | 336 kts | 269° |
| 2026-05-04 18:50 | 25.99762 | -80.31994 | 11231 ft | 347 kts | 269° |
| 2026-05-04 18:51 | 25.99752 | -80.34694 | 11833 ft | 351 kts | 269° |
| 2026-05-04 18:51 | 25.99751 | -80.37414 | 12505 ft | 354 kts | 269° |
| 2026-05-04 18:51 | 25.99696 | -80.40157 | 13175 ft | 356 kts | 264° |
| 2026-05-04 18:51 | 25.99140 | -80.42842 | 13812 ft | 359 kts | 250° |
| 2026-05-04 18:52 | 25.97995 | -80.45314 | 14362 ft | 363 kts | 237° |
| 2026-05-04 18:52 | 25.96444 | -80.47550 | 14863 ft | 367 kts | 234° |
| 2026-05-04 18:52 | 25.94858 | -80.49781 | 15363 ft | 369 kts | 234° |
| 2026-05-04 18:52 | 25.93264 | -80.52027 | 15848 ft | 371 kts | 234° |
| 2026-05-04 18:53 | 25.91666 | -80.54284 | 16327 ft | 373 kts | 234° |
| 2026-05-04 18:53 | 25.90058 | -80.56559 | 16784 ft | 376 kts | 234° |
| 2026-05-04 18:53 | 25.88441 | -80.58848 | 17245 ft | 378 kts | 234° |
| 2026-05-04 18:53 | 25.86836 | -80.61121 | 17702 ft | 380 kts | 234° |
| 2026-05-04 18:54 | 25.85198 | -80.63438 | 18139 ft | 383 kts | 234° |
| 2026-05-04 18:54 | 25.83546 | -80.65766 | 18537 ft | 385 kts | 234° |
| 2026-05-04 18:54 | 25.81880 | -80.68111 | 18909 ft | 388 kts | 234° |
| 2026-05-04 18:54 | 25.80207 | -80.70466 | 19277 ft | 390 kts | 234° |
| 2026-05-04 18:55 | 25.78728 | -80.72983 | 19629 ft | 389 kts | 244° |
| 2026-05-04 18:55 | 25.76940 | -80.78653 | 20351 ft | 392 kts | 254° |
| 2026-05-04 18:55 | 25.76156 | -80.81559 | 20737 ft | 394 kts | 254° |
| 2026-05-04 18:56 | 25.75361 | -80.84471 | 21103 ft | 396 kts | 254° |
| 2026-05-04 18:56 | 25.74557 | -80.87402 | 21472 ft | 398 kts | 254° |
| 2026-05-04 18:56 | 25.73749 | -80.90344 | 21833 ft | 400 kts | 254° |
| 2026-05-04 18:56 | 25.72938 | -80.93306 | 22197 ft | 402 kts | 254° |
| 2026-05-04 18:57 | 25.72125 | -80.96282 | 22553 ft | 404 kts | 254° |
| 2026-05-04 18:57 | 25.71309 | -80.99275 | 22898 ft | 407 kts | 255° |
| 2026-05-04 18:57 | 25.70488 | -81.02280 | 23233 ft | 409 kts | 255° |
| 2026-05-04 18:57 | 25.69661 | -81.05305 | 23568 ft | 411 kts | 255° |
| 2026-05-04 18:58 | 25.68829 | -81.08337 | 23890 ft | 411 kts | 255° |
| 2026-05-04 18:58 | 25.67994 | -81.11375 | 24196 ft | 413 kts | 255° |
| 2026-05-04 18:58 | 25.67153 | -81.14420 | 24502 ft | 414 kts | 255° |
| 2026-05-04 18:58 | 25.66311 | -81.17472 | 24800 ft | 415 kts | 255° |
| 2026-05-04 18:59 | 25.65675 | -81.20589 | 25085 ft | 415 kts | 264° |
| 2026-05-04 18:59 | 25.65600 | -81.23784 | 25376 ft | 416 kts | 274° |
| 2026-05-04 18:59 | 25.66095 | -81.26947 | 25664 ft | 419 kts | 284° |
| 2026-05-04 18:59 | 25.67119 | -81.29935 | 25946 ft | 423 kts | 294° |
| 2026-05-04 19:00 | 25.68444 | -81.32851 | 26231 ft | 425 kts | 294° |
| 2026-05-04 19:00 | 25.69779 | -81.35776 | 26530 ft | 426 kts | 294° |
| 2026-05-04 19:00 | 25.71119 | -81.38714 | 26827 ft | 427 kts | 294° |
| 2026-05-04 19:00 | 25.72462 | -81.41659 | 27125 ft | 429 kts | 294° |
| 2026-05-04 19:01 | 25.73809 | -81.44616 | 27424 ft | 430 kts | 294° |
| 2026-05-04 19:01 | 25.75158 | -81.47584 | 27703 ft | 432 kts | 294° |
| 2026-05-04 19:01 | 25.76511 | -81.50558 | 28054 ft | 431 kts | 294° |
| 2026-05-04 19:01 | 25.77858 | -81.53517 | 28460 ft | 429 kts | 294° |
| 2026-05-04 19:02 | 25.79199 | -81.56466 | 28849 ft | 427 kts | 294° |
| 2026-05-04 19:02 | 25.80530 | -81.59405 | 29247 ft | 425 kts | 294° |
| 2026-05-04 19:02 | 25.81852 | -81.62331 | 29635 ft | 424 kts | 294° |
| 2026-05-04 19:02 | 25.83171 | -81.65248 | 30027 ft | 422 kts | 294° |
| 2026-05-04 19:03 | 25.84486 | -81.68152 | 30349 ft | 421 kts | 294° |
| 2026-05-04 19:03 | 25.85797 | -81.71049 | 30657 ft | 420 kts | 294° |
| 2026-05-04 19:03 | 25.87106 | -81.73944 | 30968 ft | 419 kts | 293° |
| 2026-05-04 19:03 | 25.88557 | -81.76751 | 31263 ft | 421 kts | 301° |
| 2026-05-04 19:04 | 25.90433 | -81.79268 | 31567 ft | 426 kts | 310° |
| 2026-05-04 19:04 | 25.92672 | -81.81392 | 31847 ft | 431 kts | 317° |
| 2026-05-04 19:04 | 25.95070 | -81.83393 | 32167 ft | 431 kts | 317° |
| 2026-05-04 19:04 | 25.97458 | -81.85392 | 32481 ft | 430 kts | 317° |
| 2026-05-04 19:05 | 25.99841 | -81.87393 | 32795 ft | 429 kts | 317° |
| 2026-05-04 19:05 | 26.02219 | -81.89391 | 33106 ft | 428 kts | 317° |
| 2026-05-04 19:05 | 26.04590 | -81.91386 | 33417 ft | 427 kts | 317° |
| 2026-05-04 19:05 | 26.06958 | -81.93383 | 33719 ft | 427 kts | 316° |
| 2026-05-04 19:06 | 26.09320 | -81.95378 | 33965 ft | 427 kts | 316° |
| 2026-05-04 19:06 | 26.11680 | -81.97367 | 34021 ft | 424 kts | 316° |
| 2026-05-04 19:06 | 26.16369 | -82.01316 | 34006 ft | 422 kts | 316° |
| 2026-05-04 19:07 | 26.21043 | -82.05257 | 34025 ft | 421 kts | 316° |
| 2026-05-04 19:07 | 26.25711 | -82.09202 | 34018 ft | 421 kts | 316° |
| 2026-05-04 19:08 | 26.30366 | -82.13145 | 34032 ft | 420 kts | 316° |
| 2026-05-04 19:08 | 26.35018 | -82.17088 | 34046 ft | 420 kts | 316° |
| 2026-05-04 19:09 | 26.39668 | -82.21038 | 34049 ft | 420 kts | 316° |
| 2026-05-04 19:09 | 26.44319 | -82.24980 | 34049 ft | 420 kts | 316° |
| 2026-05-04 19:10 | 26.48966 | -82.28915 | 34051 ft | 419 kts | 316° |
| 2026-05-04 19:10 | 26.53612 | -82.32853 | 34053 ft | 419 kts | 316° |
| 2026-05-04 19:11 | 26.58245 | -82.36798 | 34050 ft | 419 kts | 316° |
| 2026-05-04 19:11 | 26.62878 | -82.40751 | 34058 ft | 419 kts | 316° |
| 2026-05-04 19:12 | 26.69784 | -82.46653 | 34058 ft | 418 kts | 316° |
| 2026-05-04 19:13 | 26.74413 | -82.50600 | 34049 ft | 418 kts | 316° |
| 2026-05-04 19:13 | 26.79035 | -82.54546 | 34049 ft | 418 kts | 316° |
| 2026-05-04 19:14 | 26.83653 | -82.58494 | 34051 ft | 418 kts | 316° |
| 2026-05-04 19:14 | 26.88264 | -82.62448 | 34048 ft | 417 kts | 315° |
| 2026-05-04 19:15 | 26.92870 | -82.66408 | 34046 ft | 417 kts | 315° |
| 2026-05-04 19:15 | 26.97473 | -82.70357 | 34054 ft | 417 kts | 316° |
| 2026-05-04 19:16 | 27.02070 | -82.74306 | 34059 ft | 416 kts | 315° |
| 2026-05-04 19:16 | 27.06655 | -82.78251 | 34061 ft | 415 kts | 315° |
| 2026-05-04 19:17 | 27.11162 | -82.82287 | 34068 ft | 410 kts | 309° |
| 2026-05-04 19:17 | 27.14402 | -82.87364 | 34044 ft | 396 kts | 290° |
| 2026-05-04 19:18 | 27.16322 | -82.93126 | 34042 ft | 394 kts | 286° |
| 2026-05-04 19:18 | 27.18175 | -82.98930 | 34043 ft | 395 kts | 286° |
| 2026-05-04 19:19 | 27.20028 | -83.04701 | 34041 ft | 396 kts | 286° |
| 2026-05-04 19:19 | 27.21883 | -83.10518 | 34047 ft | 396 kts | 286° |
| 2026-05-04 19:20 | 27.23738 | -83.16351 | 34050 ft | 396 kts | 286° |
| 2026-05-04 19:20 | 27.25592 | -83.22181 | 34056 ft | 396 kts | 286° |
| 2026-05-04 19:21 | 27.27357 | -83.27735 | 34056 ft | 396 kts | 286° |
| 2026-05-04 19:21 | 27.29203 | -83.33558 | 34058 ft | 396 kts | 286° |
| 2026-05-04 19:22 | 27.31048 | -83.39396 | 34059 ft | 396 kts | 286° |
| 2026-05-04 19:22 | 27.32891 | -83.45232 | 34059 ft | 396 kts | 286° |
| 2026-05-04 19:23 | 27.34733 | -83.51068 | 34062 ft | 396 kts | 286° |
| 2026-05-04 19:23 | 27.36601 | -83.56907 | 34051 ft | 398 kts | 289° |
| 2026-05-04 19:24 | 27.38549 | -83.62728 | 34058 ft | 397 kts | 286° |
| 2026-05-04 19:24 | 27.40306 | -83.68606 | 34059 ft | 397 kts | 285° |
| 2026-05-04 19:25 | 27.42076 | -83.74501 | 34062 ft | 398 kts | 286° |
| 2026-05-04 19:25 | 27.43905 | -83.80384 | 34066 ft | 398 kts | 287° |
| 2026-05-04 19:26 | 27.45753 | -83.86257 | 34070 ft | 398 kts | 287° |
| 2026-05-04 19:26 | 27.47583 | -83.92106 | 34069 ft | 398 kts | 287° |
| 2026-05-04 19:27 | 27.49419 | -83.97992 | 34072 ft | 398 kts | 287° |
| 2026-05-04 19:27 | 27.51249 | -84.03884 | 34068 ft | 399 kts | 287° |
| 2026-05-04 19:28 | 27.53076 | -84.09778 | 34066 ft | 402 kts | 287° |
| 2026-05-04 19:28 | 27.54922 | -84.15762 | 34087 ft | 405 kts | 287° |
| 2026-05-04 19:29 | 27.56765 | -84.21739 | 34091 ft | 403 kts | 287° |
| 2026-05-04 19:29 | 27.58603 | -84.27691 | 34090 ft | 401 kts | 287° |
| 2026-05-04 19:30 | 27.60433 | -84.33628 | 34087 ft | 401 kts | 287° |
| 2026-05-04 19:30 | 27.62257 | -84.39567 | 34086 ft | 401 kts | 287° |
| 2026-05-04 19:31 | 27.64077 | -84.45501 | 34085 ft | 400 kts | 287° |
| 2026-05-04 19:31 | 27.65898 | -84.51435 | 34080 ft | 400 kts | 287° |
| 2026-05-04 19:32 | 27.67716 | -84.57366 | 34073 ft | 400 kts | 287° |
| 2026-05-04 19:32 | 27.69511 | -84.63259 | 34072 ft | 400 kts | 288° |
| 2026-05-04 19:33 | 27.71319 | -84.69190 | 34072 ft | 399 kts | 288° |
| 2026-05-04 19:33 | 27.73122 | -84.75120 | 34075 ft | 399 kts | 288° |
| 2026-05-04 19:34 | 27.74922 | -84.81045 | 34070 ft | 399 kts | 288° |
| 2026-05-04 19:34 | 27.76720 | -84.86969 | 34064 ft | 399 kts | 288° |
| 2026-05-04 19:35 | 27.78517 | -84.92888 | 34060 ft | 398 kts | 288° |
| 2026-05-04 19:35 | 27.80303 | -84.98809 | 34056 ft | 398 kts | 288° |
| 2026-05-04 19:36 | 27.82074 | -85.04689 | 34057 ft | 398 kts | 288° |
| 2026-05-04 19:36 | 27.83855 | -85.10606 | 34059 ft | 398 kts | 288° |
| 2026-05-04 19:37 | 27.85632 | -85.16526 | 34061 ft | 398 kts | 289° |
| 2026-05-04 19:37 | 27.87407 | -85.22448 | 34065 ft | 398 kts | 289° |
| 2026-05-04 19:38 | 27.89185 | -85.28363 | 34062 ft | 397 kts | 289° |
| 2026-05-04 19:38 | 27.90975 | -85.34268 | 34065 ft | 397 kts | 289° |
| 2026-05-04 19:39 | 27.92762 | -85.40169 | 34065 ft | 397 kts | 289° |
| 2026-05-04 19:39 | 27.94551 | -85.46067 | 34067 ft | 396 kts | 289° |
| 2026-05-04 19:40 | 27.96331 | -85.51957 | 34068 ft | 395 kts | 289° |
| 2026-05-04 19:40 | 27.98106 | -85.57841 | 34067 ft | 395 kts | 290° |
| 2026-05-04 19:41 | 27.99877 | -85.63719 | 34069 ft | 395 kts | 290° |
| 2026-05-04 19:41 | 28.01638 | -85.69601 | 34071 ft | 394 kts | 290° |
| 2026-05-04 19:42 | 28.03400 | -85.75474 | 34070 ft | 394 kts | 290° |
| 2026-05-04 19:42 | 28.05156 | -85.81345 | 34073 ft | 394 kts | 290° |
| 2026-05-04 19:43 | 28.06894 | -85.87181 | 34071 ft | 393 kts | 290° |
| 2026-05-04 19:43 | 28.08647 | -85.93041 | 34075 ft | 393 kts | 290° |
| 2026-05-04 19:44 | 28.10392 | -85.98902 | 34076 ft | 392 kts | 291° |
| 2026-05-04 19:44 | 28.12121 | -86.04748 | 34076 ft | 391 kts | 291° |
| 2026-05-04 19:45 | 28.13853 | -86.10585 | 34078 ft | 391 kts | 291° |
| 2026-05-04 19:45 | 28.15288 | -86.15428 | 34077 ft | 390 kts | 291° |
| 2026-05-04 19:46 | 28.17009 | -86.21242 | 34080 ft | 389 kts | 291° |
| 2026-05-04 19:46 | 28.18718 | -86.27043 | 34086 ft | 388 kts | 291° |
| 2026-05-04 19:47 | 28.20420 | -86.32837 | 34081 ft | 387 kts | 291° |
| 2026-05-04 19:47 | 28.22120 | -86.38617 | 34086 ft | 386 kts | 292° |
| 2026-05-04 19:48 | 28.23818 | -86.44380 | 34094 ft | 385 kts | 292° |
| 2026-05-04 19:48 | 28.25512 | -86.50129 | 34089 ft | 384 kts | 292° |
| 2026-05-04 19:49 | 28.27191 | -86.55863 | 34090 ft | 382 kts | 292° |
| 2026-05-04 19:49 | 28.28858 | -86.61585 | 34094 ft | 381 kts | 292° |
| 2026-05-04 19:50 | 28.30510 | -86.67286 | 34093 ft | 380 kts | 292° |
| 2026-05-04 19:50 | 28.32166 | -86.72964 | 34091 ft | 378 kts | 292° |
| 2026-05-04 19:51 | 28.33830 | -86.78621 | 34088 ft | 378 kts | 292° |